Time;durP1;ratioP1;P1;durP2;ratioP2;P2;SDS_P1;SDS_P2;PMS_P1;PMS_P2;Temp;Humidity;BMP_temperature;BMP_pressure;BME280_temperature;BME280_humidity;BME280_pressure;Samples;Min_cycle;Max_cycle;Signal;HPM_P1;HPM_P2
2022/04/05 00:00:57;;;;;;;8.60;6.00;;;6.90;99.90;;;;;;5084268;28;20192;-73
2022/04/05 00:03:24;;;;;;;8.80;5.60;;;6.90;99.90;;;;;;5084125;28;20243;-72
2022/04/05 00:05:51;;;;;;;8.87;6.07;;;6.90;99.90;;;;;;5083211;28;20225;-73
2022/04/05 00:08:18;;;;;;;9.87;5.93;;;6.90;99.90;;;;;;5085359;28;20206;-74
2022/04/05 00:10:45;;;;;;;7.73;5.60;;;6.90;99.90;;;;;;5084311;28;20213;-73
2022/04/05 00:13:11;;;;;;;7.37;5.47;;;7.00;99.90;;;;;;5084066;28;20201;-73
2022/04/05 00:15:38;;;;;;;11.33;5.40;;;7.00;99.90;;;;;;5082106;28;20216;-73
2022/04/05 00:18:05;;;;;;;8.00;5.27;;;7.00;99.90;;;;;;5067258;28;20189;-73
2022/04/05 00:20:31;;;;;;;8.77;5.80;;;7.00;99.90;;;;;;5072477;28;20594;-73
2022/04/05 00:23:01;;;;;;;8.50;5.73;;;7.00;99.90;;;;;;5058835;28;20209;-73
2022/04/05 00:25:27;;;;;;;8.43;5.70;;;6.90;99.90;;;;;;5072846;28;20264;-72
2022/04/05 00:27:54;;;;;;;8.67;5.80;;;6.90;99.90;;;;;;5080897;28;20206;-72
2022/04/05 00:30:21;;;;;;;11.30;5.93;;;6.80;99.90;;;;;;5078897;28;20274;-74
2022/04/05 00:32:47;;;;;;;10.10;5.90;;;6.80;99.90;;;;;;5082358;28;20206;-72
2022/04/05 00:35:14;;;;;;;7.80;5.97;;;6.90;99.90;;;;;;5081187;28;20227;-73
2022/04/05 00:37:41;;;;;;;6.83;5.23;;;6.90;99.90;;;;;;5082213;28;20696;-73
2022/04/05 00:40:08;;;;;;;8.20;5.67;;;7.00;99.90;;;;;;5076063;28;20195;-72
2022/04/05 00:42:38;;;;;;;7.50;5.07;;;7.00;99.90;;;;;;5082765;28;20231;-74
2022/04/05 00:45:07;;;;;;;9.67;5.70;;;7.00;99.90;;;;;;5061015;28;20197;-72
2022/04/05 00:47:35;;;;;;;8.20;5.30;;;7.10;99.90;;;;;;5085263;28;20190;-74
2022/04/05 00:50:03;;;;;;;7.67;5.07;;;7.20;99.90;;;;;;5086195;28;20190;-74
2022/04/05 00:52:30;;;;;;;6.40;4.73;;;7.10;99.90;;;;;;5078894;28;20200;-74
2022/04/05 00:54:59;;;;;;;7.63;5.33;;;7.20;99.90;;;;;;5081638;28;20298;-73
2022/04/05 00:57:28;;;;;;;6.23;4.73;;;7.20;99.90;;;;;;5085400;28;20211;-72
2022/04/05 00:59:56;;;;;;;9.50;5.60;;;7.20;99.90;;;;;;5083232;28;20207;-72
2022/04/05 01:02:25;;;;;;;10.20;5.40;;;7.20;99.90;;;;;;5079229;28;20214;-73
2022/04/05 01:04:52;;;;;;;7.67;5.83;;;7.10;99.90;;;;;;5064357;28;20196;-72
2022/04/05 01:07:21;;;;;;;8.63;5.23;;;7.10;99.90;;;;;;5075530;28;20206;-74
2022/04/05 01:09:47;;;;;;;9.77;5.90;;;7.10;99.90;;;;;;5080849;28;20193;-73
2022/04/05 01:12:14;;;;;;;10.63;5.80;;;7.00;99.90;;;;;;5077502;28;20197;-75
2022/04/05 01:14:41;;;;;;;10.80;6.10;;;7.00;99.90;;;;;;5078809;28;20199;-74
2022/04/05 01:17:08;;;;;;;7.80;5.33;;;7.00;99.90;;;;;;5084833;28;20571;-73
2022/04/05 01:19:35;;;;;;;9.00;5.83;;;7.00;99.90;;;;;;5089032;28;20199;-74
2022/04/05 01:22:02;;;;;;;9.47;6.10;;;6.90;99.90;;;;;;5090366;28;20227;-72
2022/04/05 01:24:29;;;;;;;11.10;6.40;;;6.90;99.90;;;;;;5090997;28;20645;-74
2022/04/05 01:26:57;;;;;;;9.80;5.90;;;6.80;99.90;;;;;;5094120;28;20727;-72
2022/04/05 01:29:26;;;;;;;8.23;5.57;;;6.80;99.90;;;;;;5084494;28;20197;-72
2022/04/05 01:32:02;;;;;;;10.03;6.13;;;6.90;99.90;;;;;;5097694;28;20202;-73
2022/04/05 01:34:30;;;;;;;7.47;5.27;;;6.90;99.90;;;;;;5085408;28;20201;-73
2022/04/05 01:36:59;;;;;;;7.17;5.07;;;6.90;99.90;;;;;;5094723;28;20219;-73
2022/04/05 01:39:29;;;;;;;8.57;5.50;;;6.90;99.90;;;;;;5090513;28;20277;-73
2022/04/05 01:41:58;;;;;;;7.33;5.00;;;6.90;99.90;;;;;;5089603;28;20598;-73
2022/04/05 01:44:27;;;;;;;7.90;5.27;;;6.90;99.90;;;;;;5090423;28;20193;-72
2022/04/05 01:46:54;;;;;;;7.57;4.83;;;7.00;99.90;;;;;;5096586;28;20213;-75
2022/04/05 01:49:21;;;;;;;8.10;5.13;;;7.10;99.90;;;;;;5090484;28;20284;-75
2022/04/05 01:51:48;;;;;;;8.00;4.70;;;7.00;99.90;;;;;;5081583;28;20201;-74
2022/04/05 01:54:16;;;;;;;7.43;4.87;;;7.00;99.90;;;;;;5090826;28;20200;-72
2022/04/05 01:56:48;;;;;;;6.47;4.70;;;7.10;99.90;;;;;;5089775;28;20217;-73
2022/04/05 01:59:21;;;;;;;7.00;4.30;;;7.10;99.90;;;;;;5070375;28;20548;-72
2022/04/05 02:01:48;;;;;;;7.03;4.97;;;7.10;99.90;;;;;;5090222;28;20208;-74
2022/04/05 02:04:15;;;;;;;6.37;4.73;;;7.10;99.90;;;;;;5089851;28;20692;-73
2022/04/05 02:06:43;;;;;;;5.77;4.50;;;7.10;99.90;;;;;;5089305;28;20216;-75
2022/04/05 02:09:14;;;;;;;6.60;4.53;;;7.10;99.90;;;;;;5090725;28;20230;-75
2022/04/05 02:11:43;;;;;;;4.90;4.13;;;7.10;99.90;;;;;;5087377;28;20200;-72
2022/04/05 02:14:11;;;;;;;5.33;4.00;;;7.10;99.90;;;;;;5071859;28;20194;-75
2022/04/05 02:16:37;;;;;;;5.83;4.13;;;7.20;99.90;;;;;;5086693;28;20221;-72
2022/04/05 02:19:04;;;;;;;6.53;4.60;;;7.20;99.90;;;;;;5089571;28;20223;-73
2022/04/05 02:21:31;;;;;;;6.13;4.60;;;7.20;99.90;;;;;;5085913;28;20205;-73
2022/04/05 02:23:58;;;;;;;5.83;4.50;;;7.20;99.90;;;;;;5089000;28;20431;-74
2022/04/05 02:26:25;;;;;;;8.03;4.80;;;7.20;99.90;;;;;;5084752;28;20713;-72
2022/04/05 02:28:52;;;;;;;5.67;4.37;;;7.10;99.90;;;;;;5096982;28;20194;-73
2022/04/05 02:31:19;;;;;;;5.67;4.00;;;7.20;99.90;;;;;;5092041;28;20194;-73
2022/04/05 02:33:46;;;;;;;9.23;4.23;;;7.20;99.90;;;;;;5095005;28;20193;-73
2022/04/05 02:36:12;;;;;;;5.70;4.23;;;7.10;99.90;;;;;;5086485;28;20225;-75
2022/04/05 02:38:39;;;;;;;6.60;4.20;;;7.10;99.90;;;;;;5074975;28;20198;-73
2022/04/05 02:41:06;;;;;;;5.60;4.43;;;7.20;99.90;;;;;;5077994;28;20193;-73
2022/04/05 02:43:34;;;;;;;6.00;4.17;;;7.30;99.90;;;;;;5091417;28;20214;-73
2022/04/05 02:46:02;;;;;;;5.70;4.23;;;7.20;99.90;;;;;;5084183;28;20221;-72
2022/04/05 02:48:30;;;;;;;6.33;4.30;;;7.30;99.90;;;;;;5093688;28;20190;-75
2022/04/05 02:50:57;;;;;;;6.17;3.93;;;7.20;99.90;;;;;;5093834;28;20201;-74
2022/04/05 02:53:24;;;;;;;5.47;3.87;;;7.20;99.90;;;;;;5086770;28;20197;-73
2022/04/05 02:55:51;;;;;;;5.03;4.03;;;7.30;99.90;;;;;;5094281;28;20712;-73
2022/04/05 02:58:18;;;;;;;4.83;4.07;;;7.40;99.90;;;;;;5093987;28;20573;-73
2022/04/05 03:00:45;;;;;;;5.40;3.90;;;7.30;99.90;;;;;;5090670;28;20193;-73
2022/04/05 03:03:11;;;;;;;6.50;3.73;;;7.40;99.90;;;;;;5098132;28;20237;-73
2022/04/05 03:05:38;;;;;;;4.63;3.50;;;7.30;99.90;;;;;;5092917;28;20216;-73
2022/04/05 03:08:05;;;;;;;3.93;3.13;;;7.30;99.90;;;;;;5075596;28;20198;-73
2022/04/05 03:10:32;;;;;;;3.70;3.13;;;7.30;99.90;;;;;;5079852;28;20243;-73
2022/04/05 03:13:00;;;;;;;5.10;3.53;;;7.30;99.90;;;;;;5081916;28;20264;-73
2022/04/05 03:15:27;;;;;;;4.43;3.13;;;7.40;99.90;;;;;;5090109;28;20632;-73
2022/04/05 03:17:55;;;;;;;4.20;3.40;;;7.40;99.90;;;;;;5089158;28;20204;-74
2022/04/05 03:20:22;;;;;;;3.93;3.20;;;7.40;99.90;;;;;;5092726;28;20197;-73
2022/04/05 03:22:49;;;;;;;4.67;3.33;;;7.40;99.90;;;;;;5091834;28;20232;-73
2022/04/05 03:25:16;;;;;;;4.03;3.20;;;7.50;99.90;;;;;;5089688;28;20266;-73
2022/04/05 03:27:44;;;;;;;3.80;3.10;;;7.40;99.90;;;;;;5091296;28;20469;-73
2022/04/05 03:30:13;;;;;;;5.57;3.60;;;7.50;99.90;;;;;;5097886;28;20196;-73
2022/04/05 03:32:40;;;;;;;4.30;3.27;;;7.50;99.90;;;;;;5092222;28;20193;-73
2022/04/05 03:35:07;;;;;;;3.50;3.10;;;7.50;99.90;;;;;;5080249;28;20193;-73
2022/04/05 03:37:35;;;;;;;4.27;3.37;;;7.40;99.90;;;;;;5089108;28;20193;-74
2022/04/05 03:40:03;;;;;;;5.93;3.20;;;7.50;99.90;;;;;;5091728;28;20216;-74
2022/04/05 03:42:30;;;;;;;4.67;3.27;;;7.40;99.90;;;;;;5074949;28;20193;-73
2022/04/05 03:44:57;;;;;;;4.40;2.80;;;7.40;99.90;;;;;;5100754;28;20185;-73
2022/04/05 03:47:26;;;;;;;4.17;3.30;;;7.40;99.90;;;;;;5095238;28;20194;-72
2022/04/05 03:49:53;;;;;;;3.73;3.10;;;7.40;99.90;;;;;;5098323;28;20687;-73
2022/04/05 03:52:20;;;;;;;4.13;3.20;;;7.40;99.90;;;;;;5091098;28;20582;-72
2022/04/05 03:54:47;;;;;;;4.30;3.33;;;7.40;99.90;;;;;;5094330;28;20201;-73
2022/04/05 03:57:14;;;;;;;5.10;3.20;;;7.40;99.90;;;;;;5090923;28;20224;-73
2022/04/05 03:59:40;;;;;;;4.20;3.17;;;7.50;99.90;;;;;;5086115;28;20204;-73
2022/04/05 04:02:08;;;;;;;3.70;3.13;;;7.50;99.90;;;;;;5097202;28;20933;-73
2022/04/05 04:04:35;;;;;;;4.27;3.33;;;7.40;99.90;;;;;;5076929;28;20217;-75
2022/04/05 04:07:02;;;;;;;3.47;3.13;;;7.40;99.90;;;;;;5084954;28;20251;-73
2022/04/05 04:09:28;;;;;;;3.73;3.30;;;7.50;99.90;;;;;;5086778;28;20199;-72
2022/04/05 04:11:55;;;;;;;5.10;3.57;;;7.60;99.90;;;;;;5095232;28;20224;-74
2022/04/05 04:14:22;;;;;;;4.90;3.37;;;7.50;99.90;;;;;;5084122;28;20198;-73
2022/04/05 04:16:48;;;;;;;5.10;3.93;;;7.60;99.90;;;;;;5082915;28;20569;-73
2022/04/05 04:19:15;;;;;;;4.90;3.67;;;7.40;99.90;;;;;;5091689;28;20196;-73
2022/04/05 04:21:42;;;;;;;5.50;3.70;;;7.50;99.90;;;;;;5097514;28;20195;-75
2022/04/05 04:24:08;;;;;;;4.53;3.67;;;7.60;99.90;;;;;;5089554;28;20216;-73
2022/04/05 04:26:35;;;;;;;4.97;3.87;;;7.50;99.90;;;;;;5088202;28;20216;-76
2022/04/05 04:29:04;;;;;;;5.03;3.67;;;7.50;99.90;;;;;;5094569;28;20191;-74
2022/04/05 04:31:31;;;;;;;5.07;4.00;;;7.50;99.90;;;;;;5092121;28;20615;-73
2022/04/05 04:34:00;;;;;;;4.77;3.63;;;7.50;99.90;;;;;;5089968;28;20193;-73
2022/04/05 04:36:28;;;;;;;5.27;3.73;;;7.50;99.90;;;;;;5095153;28;20221;-72
2022/04/05 04:38:55;;;;;;;5.03;3.70;;;7.40;99.90;;;;;;5076764;28;20199;-73
2022/04/05 04:41:23;;;;;;;4.77;3.87;;;7.50;99.90;;;;;;5092643;28;20192;-74
2022/04/05 04:43:51;;;;;;;5.30;4.00;;;7.50;99.90;;;;;;5085571;28;20224;-73
2022/04/05 04:46:17;;;;;;;4.97;3.80;;;7.40;99.90;;;;;;5084815;28;20217;-75
2022/04/05 04:48:44;;;;;;;5.10;4.27;;;7.40;99.90;;;;;;5083641;28;20559;-74
2022/04/05 04:51:12;;;;;;;5.23;4.10;;;7.50;99.90;;;;;;5087588;28;20200;-73
2022/04/05 04:53:39;;;;;;;5.47;4.10;;;7.40;99.90;;;;;;5073085;28;20190;-75
2022/04/05 04:56:06;;;;;;;5.10;3.70;;;7.40;99.90;;;;;;5091464;28;20228;-73
2022/04/05 04:58:37;;;;;;;5.40;4.00;;;7.40;99.90;;;;;;5088760;28;20200;-73
2022/04/05 05:01:03;;;;;;;8.13;4.17;;;7.40;99.90;;;;;;5094739;28;20249;-75
2022/04/05 05:03:30;;;;;;;6.17;4.23;;;7.40;99.90;;;;;;5092567;28;20213;-73
2022/04/05 05:05:58;;;;;;;6.13;4.20;;;7.40;99.90;;;;;;5093236;28;20356;-73
2022/04/05 05:08:25;;;;;;;6.90;4.13;;;7.40;99.90;;;;;;5084076;28;20199;-71
2022/04/05 05:10:51;;;;;;;5.80;4.10;;;7.40;99.90;;;;;;5096968;28;20742;-74
2022/04/05 05:13:20;;;;;;;4.77;3.73;;;7.40;99.90;;;;;;5092890;28;20200;-73
2022/04/05 05:15:48;;;;;;;4.87;4.23;;;7.50;99.90;;;;;;5090753;28;20731;-74
2022/04/05 05:18:16;;;;;;;5.33;4.23;;;7.50;99.90;;;;;;5072880;28;20823;-72
2022/04/05 05:20:43;;;;;;;6.10;4.30;;;7.50;99.90;;;;;;5082697;28;20636;-74
2022/04/05 05:23:10;;;;;;;6.67;4.50;;;7.40;99.90;;;;;;5087712;28;20226;-74
2022/04/05 05:25:37;;;;;;;5.77;4.53;;;7.40;99.90;;;;;;5099045;28;20225;-74
2022/04/05 05:28:04;;;;;;;6.07;4.50;;;7.30;99.90;;;;;;5103262;28;20204;-75
2022/04/05 05:30:32;;;;;;;7.30;4.60;;;7.30;99.90;;;;;;5094431;28;21478;-74
2022/04/05 05:32:59;;;;;;;8.60;4.57;;;7.30;99.90;;;;;;5084605;28;20188;-75
2022/04/05 05:35:26;;;;;;;7.27;4.80;;;7.30;99.90;;;;;;5100609;28;20383;-75
2022/04/05 05:37:52;;;;;;;7.97;5.50;;;7.40;99.90;;;;;;5098720;28;20670;-75
2022/04/05 05:40:19;;;;;;;7.60;4.90;;;7.30;99.90;;;;;;5094728;28;20227;-76
2022/04/05 05:42:55;;;;;;;6.77;5.00;;;7.30;99.90;;;;;;5089689;28;20189;-76
2022/04/05 05:45:22;;;;;;;7.57;5.17;;;7.30;99.90;;;;;;5101435;28;20267;-75
2022/04/05 05:47:49;;;;;;;8.83;5.00;;;7.30;99.90;;;;;;5093064;28;20189;-76
2022/04/05 05:50:17;;;;;;;6.80;4.93;;;7.30;99.90;;;;;;5086556;28;20225;-75
2022/04/05 05:52:45;;;;;;;6.83;5.17;;;7.20;99.90;;;;;;5075706;28;20587;-75
2022/04/05 05:55:14;;;;;;;6.60;4.83;;;7.20;99.90;;;;;;5089585;28;20689;-74
2022/04/05 05:57:42;;;;;;;6.43;5.10;;;7.20;99.90;;;;;;5091884;28;20193;-75
2022/04/05 06:00:17;;;;;;;6.10;4.67;;;7.20;99.90;;;;;;5092785;28;20192;-75
2022/04/05 06:02:45;;;;;;;6.43;4.80;;;7.30;99.90;;;;;;5094321;28;20200;-74
2022/04/05 06:05:12;;;;;;;6.90;4.70;;;7.30;99.90;;;;;;5095011;28;20220;-74
2022/04/05 06:07:41;;;;;;;6.60;4.80;;;7.30;99.90;;;;;;5092042;28;20222;-75
2022/04/05 06:10:11;;;;;;;7.70;4.40;;;7.30;99.90;;;;;;5092201;28;20204;-76
2022/04/05 06:12:39;;;;;;;7.53;4.53;;;7.40;99.90;;;;;;5084301;28;20189;-76
2022/04/05 06:15:08;;;;;;;6.10;4.63;;;7.40;99.90;;;;;;5098080;28;20660;-75
2022/04/05 06:17:40;;;;;;;7.27;4.83;;;7.40;99.90;;;;;;5094808;28;20573;-77
2022/04/05 06:20:08;;;;;;;8.30;5.37;;;7.40;99.90;;;;;;5093630;28;20584;-77
2022/04/05 06:22:46;;;;;;;6.50;5.20;;;7.40;99.90;;;;;;5095864;28;20545;-73
2022/04/05 06:25:16;;;;;;;7.33;5.00;;;7.40;99.90;;;;;;5094045;28;20216;-77
2022/04/05 06:27:43;;;;;;;6.63;5.07;;;7.40;99.90;;;;;;5101117;28;20200;-76
2022/04/05 06:30:11;;;;;;;6.37;5.10;;;7.40;99.90;;;;;;5096140;28;20197;-77
2022/04/05 06:32:38;;;;;;;6.83;4.67;;;7.50;99.90;;;;;;5097199;28;20197;-77
2022/04/05 06:35:07;;;;;;;7.83;4.80;;;7.50;99.90;;;;;;5097202;28;20194;-73
2022/04/05 06:37:35;;;;;;;6.13;3.97;;;7.60;99.90;;;;;;5099462;28;20599;-76
2022/04/05 06:40:06;;;;;;;7.63;5.37;;;7.60;99.90;;;;;;5091945;28;20394;-77
2022/04/05 06:42:35;;;;;;;6.07;4.70;;;7.60;99.90;;;;;;5100460;28;20203;-77
2022/04/05 06:45:02;;;;;;;7.43;4.87;;;7.50;99.90;;;;;;5093979;28;20220;-79
2022/04/05 06:47:29;;;;;;;6.50;5.17;;;7.60;99.90;;;;;;5092971;28;20192;-77
2022/04/05 06:49:56;;;;;;;5.97;4.53;;;7.70;99.90;;;;;;5098891;28;20212;-77
2022/04/05 06:52:22;;;;;;;6.60;4.70;;;7.60;99.90;;;;;;5092101;28;20203;-76
2022/04/05 06:54:49;;;;;;;6.30;4.70;;;7.60;99.90;;;;;;5092530;28;20197;-76
2022/04/05 06:57:16;;;;;;;6.77;4.80;;;7.70;99.90;;;;;;5096301;28;20217;-74
2022/04/05 06:59:48;;;;;;;7.07;4.67;;;7.80;99.90;;;;;;5093232;28;20204;-76
2022/04/05 07:02:15;;;;;;;6.77;4.77;;;7.80;99.90;;;;;;5101836;28;20225;-75
2022/04/05 07:04:41;;;;;;;6.23;4.53;;;7.90;99.90;;;;;;5098527;28;20700;-77
2022/04/05 07:07:08;;;;;;;5.97;4.43;;;8.00;99.90;;;;;;5096104;28;20221;-76
2022/04/05 07:09:34;;;;;;;5.70;4.30;;;8.00;99.90;;;;;;5098571;28;20205;-75
2022/04/05 07:12:02;;;;;;;4.67;4.07;;;8.00;99.90;;;;;;5083180;28;20625;-76
2022/04/05 07:14:29;;;;;;;5.47;4.30;;;8.00;99.90;;;;;;5089113;28;20210;-77
2022/04/05 07:16:55;;;;;;;5.17;4.07;;;8.00;99.90;;;;;;5093705;28;20259;-75
2022/04/05 07:19:22;;;;;;;5.27;4.10;;;8.00;99.90;;;;;;5096792;28;20203;-75
2022/04/05 07:21:49;;;;;;;5.77;4.33;;;8.10;99.90;;;;;;5088893;28;20734;-76
2022/04/05 07:24:15;;;;;;;4.93;3.90;;;8.10;99.90;;;;;;5101815;28;20309;-75
2022/04/05 07:26:42;;;;;;;5.67;3.93;;;8.20;99.90;;;;;;5102852;28;20701;-75
2022/04/05 07:29:10;;;;;;;5.43;3.87;;;8.30;99.90;;;;;;5102789;28;20198;-78
2022/04/05 07:31:37;;;;;;;4.53;3.53;;;8.40;99.90;;;;;;5103562;28;20591;-76
2022/04/05 07:34:04;;;;;;;4.17;3.33;;;8.40;99.90;;;;;;5096360;28;20261;-74
2022/04/05 07:36:32;;;;;;;4.70;3.30;;;8.50;99.90;;;;;;5098239;28;20225;-76
2022/04/05 07:38:59;;;;;;;4.97;3.53;;;8.40;99.90;;;;;;5101890;28;20203;-74
2022/04/05 07:41:26;;;;;;;4.33;3.20;;;8.50;99.90;;;;;;5094940;28;20221;-75
2022/04/05 07:43:52;;;;;;;4.33;3.20;;;8.50;99.90;;;;;;5096712;28;20731;-76
2022/04/05 07:46:19;;;;;;;5.00;3.00;;;8.60;99.90;;;;;;5078315;28;20205;-73
2022/04/05 07:48:48;;;;;;;3.77;3.20;;;8.60;99.90;;;;;;5095292;28;20191;-76
2022/04/05 07:51:16;;;;;;;3.83;3.03;;;8.60;99.90;;;;;;5092608;28;20197;-75
2022/04/05 07:53:43;;;;;;;5.50;2.90;;;8.70;99.90;;;;;;5088516;28;20573;-75
2022/04/05 07:56:12;;;;;;;3.17;2.80;;;8.70;99.90;;;;;;5095850;28;20218;-75
2022/04/05 07:58:40;;;;;;;3.20;2.70;;;8.90;99.90;;;;;;5091600;28;20205;-76
2022/04/05 08:01:08;;;;;;;3.10;2.80;;;9.10;99.90;;;;;;5101676;28;20255;-75
2022/04/05 08:03:36;;;;;;;3.93;3.10;;;9.10;99.90;;;;;;5095339;28;20246;-75
2022/04/05 08:06:03;;;;;;;2.73;2.30;;;9.30;99.90;;;;;;5100759;28;20297;-73
2022/04/05 08:08:30;;;;;;;3.40;2.17;;;9.40;99.90;;;;;;5098002;28;20199;-74
2022/04/05 08:11:17;;;;;;;6.57;2.77;;;9.30;99.90;;;;;;5095219;28;20191;-76
2022/04/05 08:13:43;;;;;;;2.97;2.30;;;9.40;99.90;;;;;;5094434;28;20191;-75
2022/04/05 08:16:10;;;;;;;4.37;2.30;;;9.20;99.90;;;;;;5096584;28;20218;-73
2022/04/05 08:18:37;;;;;;;2.87;2.40;;;9.20;99.90;;;;;;5094201;28;20193;-76
2022/04/05 08:21:04;;;;;;;3.03;2.50;;;9.20;99.90;;;;;;5085398;28;20205;-76
2022/04/05 08:23:30;;;;;;;2.43;2.20;;;9.30;99.90;;;;;;5089621;28;20200;-75
2022/04/05 08:25:58;;;;;;;2.20;1.90;;;9.40;99.90;;;;;;5091046;28;20219;-75
2022/04/05 08:28:26;;;;;;;2.43;2.10;;;9.30;99.90;;;;;;5092224;28;20208;-76
2022/04/05 08:30:52;;;;;;;3.60;2.10;;;9.40;99.90;;;;;;5090703;28;20205;-75
2022/04/05 08:33:19;;;;;;;2.30;2.10;;;9.40;99.90;;;;;;5098102;28;20202;-76
2022/04/05 08:35:47;;;;;;;2.50;2.00;;;9.40;99.90;;;;;;5076117;28;20216;-74
2022/04/05 08:38:14;;;;;;;2.13;1.93;;;9.40;99.90;;;;;;5076622;28;20200;-75
2022/04/05 08:40:41;;;;;;;2.00;1.80;;;9.40;99.90;;;;;;5103734;28;20202;-75
2022/04/05 08:43:08;;;;;;;2.10;1.90;;;9.50;99.90;;;;;;5068429;28;20668;-74
2022/04/05 08:45:35;;;;;;;2.60;2.10;;;9.60;99.90;;;;;;5089931;28;20217;-74
2022/04/05 08:48:09;;;;;;;1.87;1.67;;;9.80;99.90;;;;;;5082689;28;20223;-77
2022/04/05 08:50:36;;;;;;;2.20;1.93;;;9.80;99.90;;;;;;5086654;28;20194;-74
2022/04/05 08:53:03;;;;;;;2.10;1.80;;;9.80;99.90;;;;;;5068998;28;20205;-77
2022/04/05 08:55:35;;;;;;;2.37;1.90;;;9.70;99.90;;;;;;5091217;28;20218;-76
2022/04/05 08:58:03;;;;;;;2.30;1.93;;;9.80;99.90;;;;;;5097768;28;20283;-75
2022/04/05 09:00:30;;;;;;;1.97;1.80;;;9.90;99.90;;;;;;5071982;28;20200;-75
2022/04/05 09:03:00;;;;;;;2.40;1.77;;;10.00;99.90;;;;;;5094690;28;20682;-75
2022/04/05 09:05:27;;;;;;;1.97;1.67;;;10.00;99.90;;;;;;5088462;28;20221;-74
2022/04/05 09:08:14;;;;;;;2.67;1.90;;;9.90;99.90;;;;;;5089754;28;20261;-75
2022/04/05 09:10:45;;;;;;;2.13;1.87;;;9.80;99.90;;;;;;5094051;28;20201;-75
2022/04/05 09:13:15;;;;;;;2.20;2.00;;;9.70;99.90;;;;;;5086946;28;20196;-76
2022/04/05 09:15:42;;;;;;;2.27;2.07;;;9.70;99.90;;;;;;5092219;28;20231;-77
2022/04/05 09:18:09;;;;;;;2.00;1.80;;;9.60;99.90;;;;;;5089098;28;20225;-75
2022/04/05 09:20:47;;;;;;;2.27;1.90;;;9.50;99.90;;;;;;5086306;28;20667;-75
2022/04/05 09:23:33;;;;;;;2.17;1.80;;;9.50;99.90;;;;;;5095471;28;20267;-75
2022/04/05 09:26:06;;;;;;;2.80;1.93;;;9.60;99.90;;;;;;5087891;28;20228;-75
2022/04/05 09:28:34;;;;;;;2.20;1.90;;;9.60;99.90;;;;;;5085117;28;20201;-75
2022/04/05 09:31:02;;;;;;;2.07;1.83;;;9.70;99.90;;;;;;5091212;28;20199;-75
2022/04/05 09:33:31;;;;;;;2.97;1.80;;;10.00;99.90;;;;;;5093164;28;20215;-76
2022/04/05 09:36:10;;;;;;;1.93;1.73;;;10.40;99.90;;;;;;5095343;28;20224;-76
2022/04/05 09:38:38;;;;;;;2.27;1.70;;;10.60;99.90;;;;;;5090248;28;20458;-75
2022/04/05 09:41:33;;;;;;;2.73;1.87;;;10.70;99.90;;;;;;5102035;28;20190;-76
2022/04/05 09:44:01;;;;;;;2.47;1.90;;;10.80;99.90;;;;;;5090648;28;20193;-75
2022/04/05 09:46:29;;;;;;;2.27;1.87;;;10.70;99.90;;;;;;5094153;28;20697;-75
2022/04/05 09:49:05;;;;;;;2.20;1.80;;;10.70;99.90;;;;;;5100022;28;20265;-75
2022/04/05 09:51:40;;;;;;;1.90;1.70;;;10.90;99.90;;;;;;5094933;28;20186;-76
2022/04/05 09:54:19;;;;;;;2.47;2.17;;;11.00;99.90;;;;;;5083226;28;20200;-76
2022/04/05 09:56:45;;;;;;;2.10;1.83;;;11.60;99.90;;;;;;5069157;28;20303;-76
2022/04/05 09:59:18;;;;;;;2.00;1.63;;;11.90;99.90;;;;;;5086981;28;20204;-75
2022/04/05 10:01:49;;;;;;;2.00;1.60;;;12.50;99.90;;;;;;5083560;28;20658;-75
2022/04/05 10:04:18;;;;;;;1.73;1.60;;;13.00;99.90;;;;;;5080818;28;20200;-77
2022/04/05 10:06:47;;;;;;;2.00;1.80;;;13.30;99.90;;;;;;5088633;28;20222;-83
2022/04/05 10:09:17;;;;;;;1.67;1.50;;;13.10;99.90;;;;;;5083000;28;20200;-84
2022/04/05 10:11:45;;;;;;;2.00;1.77;;;13.30;99.90;;;;;;5096233;28;20636;-81
2022/04/05 10:14:16;;;;;;;2.10;1.80;;;13.40;99.90;;;;;;5081674;28;20225;-84
2022/04/05 10:16:45;;;;;;;3.30;2.30;;;13.50;99.90;;;;;;5095870;28;20220;-83
2022/04/05 10:19:12;;;;;;;3.70;2.10;;;13.50;99.90;;;;;;5096040;28;20491;-84
2022/04/05 10:21:41;;;;;;;2.13;1.60;;;13.80;99.90;;;;;;5088691;28;20194;-81
2022/04/05 10:24:10;;;;;;;1.93;1.77;;;13.90;99.90;;;;;;5069723;28;20204;-78
2022/04/05 10:26:39;;;;;;;1.70;1.60;;;14.10;99.90;;;;;;5095844;28;20205;-77
2022/04/05 10:29:09;;;;;;;1.67;1.57;;;14.30;99.90;;;;;;5088547;28;20355;-79
2022/04/05 10:31:42;;;;;;;2.50;1.40;;;14.20;99.90;;;;;;5083401;28;20192;-76
2022/04/05 10:34:27;;;;;;;1.80;1.60;;;14.20;99.90;;;;;;5085743;28;20196;-78
2022/04/05 10:37:19;;;;;;;2.20;1.80;;;14.30;99.90;;;;;;5090861;28;20397;-73
2022/04/05 10:39:58;;;;;;;2.43;1.83;;;14.20;99.90;;;;;;5085117;28;20207;-76
2022/04/05 10:42:32;;;;;;;1.63;1.53;;;14.00;99.90;;;;;;5087787;28;20647;-79
2022/04/05 10:45:14;;;;;;;1.60;1.50;;;14.10;99.90;;;;;;5091779;28;20260;-77
2022/04/05 10:48:13;;;;;;;3.40;1.50;;;14.30;99.90;;;;;;5073137;28;20591;-75
2022/04/05 10:51:00;;;;;;;2.00;1.80;;;14.00;99.90;;;;;;5102589;28;20262;-79
2022/04/05 10:53:39;;;;;;;2.07;1.63;;;13.90;99.90;;;;;;5087164;28;20207;-78
2022/04/05 10:56:07;;;;;;;2.00;1.80;;;13.90;99.90;;;;;;5077164;28;20235;-76
2022/04/05 10:58:47;;;;;;;1.87;1.60;;;13.90;99.90;;;;;;5088031;28;20217;-78
2022/04/05 11:01:16;;;;;;;1.80;1.57;;;14.00;99.90;;;;;;5089201;28;20201;-77
2022/04/05 11:04:02;;;;;;;1.67;1.50;;;14.20;99.90;;;;;;5089892;28;20697;-77
2022/04/05 11:06:29;;;;;;;3.03;1.77;;;14.30;99.90;;;;;;5074881;28;20756;-78
2022/04/05 11:08:58;;;;;;;2.03;1.50;;;14.60;99.90;;;;;;5103286;28;20600;-76
2022/04/05 11:11:26;;;;;;;1.67;1.50;;;14.60;99.90;;;;;;5106429;28;20679;-79
2022/04/05 11:14:02;;;;;;;2.37;1.53;;;14.40;99.90;;;;;;5091603;28;20204;-76
2022/04/05 11:16:30;;;;;;;2.00;1.80;;;14.50;99.90;;;;;;5096387;28;20261;-77
2022/04/05 11:18:58;;;;;;;2.30;1.80;;;14.50;99.90;;;;;;5088771;28;20217;-77
2022/04/05 11:21:24;;;;;;;1.60;1.50;;;14.50;99.90;;;;;;5104067;28;20193;-76
2022/04/05 11:23:52;;;;;;;1.73;1.60;;;14.60;99.90;;;;;;5089599;28;20555;-75
2022/04/05 11:26:29;;;;;;;2.50;1.67;;;14.30;99.90;;;;;;5102737;28;20223;-75
2022/04/05 11:28:57;;;;;;;1.83;1.60;;;14.30;99.90;;;;;;5091646;28;20195;-73
2022/04/05 11:31:39;;;;;;;1.60;1.50;;;14.80;99.90;;;;;;5109507;28;20197;-75
2022/04/05 11:34:38;;;;;;;1.90;1.70;;;15.20;99.90;;;;;;5085315;28;20219;-73
2022/04/05 11:37:07;;;;;;;4.53;1.53;;;15.60;99.90;;;;;;5079132;28;20209;-75
2022/04/05 11:39:41;;;;;;;2.07;1.57;;;15.60;99.90;;;;;;5091383;28;20665;-73
2022/04/05 11:42:08;;;;;;;1.80;1.67;;;15.80;99.90;;;;;;5085974;28;20193;-75
2022/04/05 11:44:35;;;;;;;2.53;2.03;;;15.70;99.90;;;;;;5070332;28;20545;-77
2022/04/05 11:47:03;;;;;;;2.50;1.80;;;15.60;99.90;;;;;;5090417;28;20213;-76
2022/04/05 11:49:40;;;;;;;2.23;1.90;;;15.50;99.90;;;;;;5091439;28;20190;-77
2022/04/05 11:52:08;;;;;;;2.63;1.93;;;15.70;99.90;;;;;;5081870;28;20401;-75
2022/04/05 11:56:00;;;;;;;2.90;1.77;;;15.60;99.90;;;;;;5083891;28;20654;-74
2022/04/05 11:57:22;;;;;;;2.20;2.00;;;15.60;99.90;;;;;;5097114;28;20718;-75
2022/04/05 11:59:49;;;;;;;2.17;1.93;;;15.80;99.90;;;;;;5093109;28;20198;-73
2022/04/05 12:02:27;;;;;;;2.50;1.90;;;15.60;99.90;;;;;;5091400;28;20198;-73
2022/04/05 12:04:54;;;;;;;2.20;1.90;;;15.40;99.90;;;;;;5100108;28;20487;-73
2022/04/05 12:07:21;;;;;;;2.33;1.90;;;15.60;99.90;;;;;;5099676;28;20588;-74
2022/04/05 12:09:48;;;;;;;2.00;1.80;;;15.60;99.90;;;;;;5102651;28;20196;-72
2022/04/05 12:12:14;;;;;;;2.97;2.03;;;15.50;99.90;;;;;;5092781;28;20192;-75
2022/04/05 12:14:41;;;;;;;2.10;1.83;;;15.20;99.90;;;;;;5091786;28;20197;-73
2022/04/05 12:17:08;;;;;;;2.47;2.00;;;15.10;99.90;;;;;;5096445;28;20213;-74
2022/04/05 12:19:41;;;;;;;2.20;1.90;;;14.80;99.90;;;;;;5086356;28;20669;-75
2022/04/05 12:22:16;;;;;;;2.20;2.00;;;15.00;99.90;;;;;;5095118;28;20196;-72
2022/04/05 12:24:51;;;;;;;2.43;1.90;;;15.10;99.90;;;;;;5102018;28;20192;-76
2022/04/05 12:27:22;;;;;;;3.13;2.27;;;15.20;99.90;;;;;;5089851;28;20224;-74
2022/04/05 12:29:55;;;;;;;2.67;1.87;;;15.10;99.90;;;;;;5090718;28;20696;-74
2022/04/05 12:32:33;;;;;;;2.80;1.97;;;15.10;99.90;;;;;;5071808;28;20181;-75
2022/04/05 12:35:00;;;;;;;2.27;2.00;;;14.80;99.90;;;;;;5087964;28;20392;-77
2022/04/05 12:37:29;;;;;;;2.00;1.80;;;14.90;99.90;;;;;;5087009;28;20216;-73
2022/04/05 12:39:56;;;;;;;2.10;1.90;;;15.30;99.90;;;;;;5083174;28;20660;-73
2022/04/05 12:42:23;;;;;;;2.47;2.00;;;15.50;99.90;;;;;;5082600;28;20208;-75
2022/04/05 12:44:58;;;;;;;2.47;2.23;;;15.50;99.90;;;;;;5068675;28;20198;-74
2022/04/05 12:47:26;;;;;;;2.23;1.80;;;15.30;99.90;;;;;;5095634;28;20196;-74
2022/04/05 12:49:58;;;;;;;3.27;2.33;;;15.70;99.90;;;;;;5092487;28;20217;-73
2022/04/05 12:52:33;;;;;;;2.00;1.77;;;15.80;99.90;;;;;;5088268;28;20193;-73
2022/04/05 12:55:05;;;;;;;1.87;1.60;;;15.80;99.90;;;;;;5092731;28;20189;-74
2022/04/05 12:57:33;;;;;;;2.57;1.80;;;15.90;99.90;;;;;;5109816;28;20204;-75
2022/04/05 13:00:15;;;;;;;2.60;1.80;;;16.00;99.90;;;;;;5100992;28;20649;-75
2022/04/05 13:02:49;;;;;;;2.57;2.10;;;15.80;99.90;;;;;;5086894;28;20185;-74